Oakfield, Maine
Current Conditions -  °F | °C
As of 2:02 PM on Tuesday 27 Jan 2015 (Local Time) from KHUL Reporting Station
Light Snow Light Snow  
Wind Chill: -10°   Ceiling: 1400
Heat Index:   Visibility: 0.75mi
Dew Point:   Wind: 20mph
Humidity: 80%   Direction: 20°NNE
Pressure: 29.8"   Gusts: NA
Location:  46.1°N, 68.15°W
Report Text: KHUL 271902Z AUTO 02017KT 3/4SM -SN VV014 M13/M16 A2980 RMK AO2 P0000 T11281156
Loading
Personal Weather Stations






























Interactive Weather Map New forecast layout! Learn more

10-Day Weather Forecast

Advertisements
Track Severe Weather on mobile